createdAt,value
2018-11-25T00:01:30.538Z,10.78
2018-11-25T00:03:58.060Z,10.23
2018-11-25T00:06:25.399Z,10.55
2018-11-25T00:08:52.743Z,10.63
2018-11-25T00:11:20.175Z,10.24
2018-11-25T00:13:47.564Z,10.22
2018-11-25T00:16:15.001Z,10.08
2018-11-25T00:18:42.341Z,10.37
2018-11-25T00:21:09.703Z,10.39
2018-11-25T00:23:37.152Z,10.61
2018-11-25T00:26:04.545Z,10.67
2018-11-25T00:28:31.861Z,10.90
2018-11-25T00:30:59.243Z,10.95
2018-11-25T00:33:26.795Z,10.93
2018-11-25T00:35:54.143Z,10.72
2018-11-25T00:38:21.647Z,10.93
2018-11-25T00:40:48.980Z,10.93
2018-11-25T00:43:16.364Z,10.80
2018-11-25T00:45:43.810Z,10.81
2018-11-25T00:48:11.192Z,10.53
2018-11-25T00:50:38.685Z,10.91
2018-11-25T00:53:06.397Z,10.30
2018-11-25T00:55:33.730Z,10.44
2018-11-25T00:58:01.170Z,10.68
2018-11-25T01:00:28.628Z,10.44
2018-11-25T01:02:56.183Z,10.29
2018-11-25T01:05:23.526Z,10.49
2018-11-25T01:07:50.942Z,10.72
2018-11-25T01:10:18.287Z,10.82
2018-11-25T01:12:45.892Z,10.84
2018-11-25T01:15:14.399Z,10.89
2018-11-25T01:17:41.837Z,10.85
2018-11-25T01:20:10.845Z,10.91
2018-11-25T01:22:38.203Z,10.48
2018-11-25T01:25:07.286Z,10.79
2018-11-25T01:27:34.688Z,10.84
2018-11-25T01:30:02.127Z,10.59
2018-11-25T01:32:30.528Z,10.22
2018-11-25T01:35:01.162Z,10.42
2018-11-25T01:37:24.288Z,10.33
2018-11-25T01:39:51.660Z,10.31
2018-11-25T01:42:19.077Z,10.67
2018-11-25T01:44:46.461Z,10.51
2018-11-25T01:47:13.773Z,10.26
2018-11-25T01:49:41.228Z,10.12
2018-11-25T01:52:08.551Z,10.16
2018-11-25T01:54:35.951Z,10.36
2018-11-25T01:57:03.344Z,10.17
2018-11-25T01:59:30.660Z,10.24
2018-11-25T02:01:58.160Z,10.38
2018-11-25T02:04:25.550Z,10.39
2018-11-25T02:06:52.870Z,10.42
2018-11-25T02:09:20.187Z,10.22
2018-11-25T02:11:47.630Z,10.06
2018-11-25T02:14:15.038Z,9.81
2018-11-25T02:16:42.349Z,10.14
2018-11-25T02:19:09.777Z,9.98
2018-11-25T02:21:37.124Z,9.96
2018-11-25T02:24:04.620Z,10.00
2018-11-25T02:26:32.173Z,10.03
2018-11-25T02:28:59.497Z,9.91
2018-11-25T02:31:26.863Z,9.89
2018-11-25T02:33:54.272Z,9.95
2018-11-25T02:36:21.675Z,10.04
2018-11-25T02:38:49.061Z,9.89
2018-11-25T02:41:16.455Z,10.01
2018-11-25T02:43:43.806Z,9.79
2018-11-25T02:46:11.273Z,9.99
2018-11-25T02:48:39.400Z,9.67
2018-11-25T02:51:06.717Z,9.65
2018-11-25T02:53:35.044Z,10.06
2018-11-25T02:56:02.387Z,9.60
2018-11-25T02:58:29.825Z,9.61
2018-11-25T03:00:57.352Z,9.70
2018-11-25T03:03:24.733Z,9.76
2018-11-25T03:05:52.150Z,9.76
2018-11-25T03:08:19.539Z,9.89
2018-11-25T03:10:46.910Z,9.89
2018-11-25T03:13:14.258Z,9.67
2018-11-25T03:15:41.650Z,9.71
2018-11-25T03:18:09.082Z,10.17
2018-11-25T03:20:36.550Z,10.01
2018-11-25T03:23:03.904Z,9.81
2018-11-25T03:25:31.404Z,9.64
2018-11-25T03:27:58.734Z,9.98
2018-11-25T03:30:26.086Z,10.15
2018-11-25T03:32:53.841Z,9.83
2018-11-25T03:35:21.368Z,10.25
2018-11-25T03:37:49.646Z,10.32
2018-11-25T03:40:18.267Z,9.78
2018-11-25T03:42:45.736Z,10.14
2018-11-25T03:45:20.890Z,10.23
2018-11-25T03:47:48.488Z,10.45
2018-11-25T03:50:16.147Z,10.01
2018-11-25T03:52:43.498Z,9.92
2018-11-25T03:55:12.215Z,9.92
2018-11-25T03:57:39.685Z,10.39
2018-11-25T04:00:13.359Z,10.12
2018-11-25T04:02:40.946Z,10.09
2018-11-25T04:05:09.663Z,9.97
2018-11-25T04:07:37.089Z,10.03
2018-11-25T04:10:06.856Z,10.14
2018-11-25T04:12:34.272Z,10.21
2018-11-25T04:15:01.639Z,10.13
2018-11-25T04:17:29.119Z,10.16
2018-11-25T04:19:56.499Z,10.24
2018-11-25T04:22:23.853Z,9.92
2018-11-25T04:24:51.223Z,9.93
2018-11-25T04:27:18.665Z,9.98
2018-11-25T04:29:46.047Z,10.23
2018-11-25T04:32:13.528Z,10.46
2018-11-25T04:34:40.858Z,10.11
2018-11-25T04:37:08.212Z,9.86
2018-11-25T04:39:35.621Z,10.10
2018-11-25T04:42:02.992Z,10.10
2018-11-25T04:44:30.306Z,10.39
2018-11-25T04:46:58.356Z,10.42
2018-11-25T04:49:25.689Z,10.26
2018-11-25T04:51:53.041Z,10.17
2018-11-25T04:54:20.384Z,9.93
2018-11-25T04:56:47.892Z,9.81
2018-11-25T04:59:15.302Z,9.80
2018-11-25T05:01:42.655Z,9.55
2018-11-25T05:04:10.058Z,9.97
2018-11-25T05:06:37.492Z,10.23
2018-11-25T05:09:07.422Z,10.35
2018-11-25T05:11:35.190Z,9.93
2018-11-25T05:14:02.486Z,9.19
2018-11-25T05:16:29.844Z,9.37
2018-11-25T05:18:57.188Z,10.15
2018-11-25T05:21:24.530Z,10.42
2018-11-25T05:23:51.850Z,9.95
2018-11-25T05:26:19.212Z,10.33
2018-11-25T05:28:46.614Z,10.29
2018-11-25T05:31:13.961Z,9.93
2018-11-25T05:33:41.283Z,10.23
2018-11-25T05:36:08.665Z,9.83
2018-11-25T05:38:36.109Z,10.05
2018-11-25T05:41:03.512Z,9.53
2018-11-25T05:43:30.873Z,9.55
2018-11-25T05:45:58.287Z,9.60
2018-11-25T05:48:25.666Z,9.61
2018-11-25T05:50:53.033Z,9.96
2018-11-25T05:53:20.349Z,10.39
2018-11-25T05:55:47.746Z,9.81
2018-11-25T05:58:15.073Z,9.72
2018-11-25T06:00:42.439Z,10.35
2018-11-25T06:03:09.759Z,9.89
2018-11-25T06:05:37.073Z,9.68
2018-11-25T06:08:04.550Z,10.18
2018-11-25T06:10:31.951Z,10.67
2018-11-25T06:12:59.432Z,10.81
2018-11-25T06:15:26.747Z,10.23
2018-11-25T06:17:54.152Z,9.91
2018-11-25T06:20:21.540Z,9.71
2018-11-25T06:22:48.916Z,9.97
2018-11-25T06:25:18.402Z,9.64
2018-11-25T06:27:45.907Z,9.98
2018-11-25T06:30:16.055Z,10.14
2018-11-25T06:32:43.410Z,10.55
2018-11-25T06:35:12.326Z,10.91
2018-11-25T06:37:39.681Z,9.92
2018-11-25T06:40:10.986Z,9.61
2018-11-25T06:42:38.338Z,9.77
2018-11-25T06:45:09.910Z,10.04
2018-11-25T06:47:37.294Z,9.83
2018-11-25T06:50:06.462Z,10.26
2018-11-25T06:52:37.332Z,9.85
2018-11-25T06:55:05.466Z,9.78
2018-11-25T06:57:32.817Z,9.65
2018-11-25T07:00:00.894Z,9.93
2018-11-25T07:02:28.277Z,10.00
2018-11-25T07:04:55.603Z,9.89
2018-11-25T07:07:23.153Z,9.74
2018-11-25T07:09:50.579Z,9.89
2018-11-25T07:12:18.039Z,9.79
2018-11-25T07:14:45.473Z,9.87
2018-11-25T07:17:12.832Z,10.15
2018-11-25T07:19:40.215Z,10.40
2018-11-25T07:22:07.590Z,10.66
2018-11-25T07:24:34.959Z,10.99
2018-11-25T07:27:02.262Z,10.83
2018-11-25T07:29:29.643Z,9.46
2018-11-25T07:31:57.098Z,9.88
2018-11-25T07:34:24.449Z,10.26
2018-11-25T07:36:51.821Z,10.32
2018-11-25T07:39:19.134Z,10.26
2018-11-25T07:41:46.486Z,10.58
2018-11-25T07:44:13.817Z,10.93
2018-11-25T07:46:43.301Z,10.70
2018-11-25T07:49:10.750Z,10.66
2018-11-25T07:51:38.121Z,10.74
2018-11-25T07:54:05.937Z,11.12
2018-11-25T07:56:33.385Z,10.74
2018-11-25T07:59:00.838Z,9.94
2018-11-25T08:01:28.158Z,10.36
2018-11-25T08:03:55.521Z,10.78
2018-11-25T08:06:22.816Z,10.88
2018-11-25T08:08:50.171Z,10.36
2018-11-25T08:11:17.547Z,10.69
2018-11-25T08:13:44.974Z,11.00
2018-11-25T08:16:12.311Z,10.13
2018-11-25T08:18:39.608Z,10.05
2018-11-25T08:21:06.974Z,10.40
2018-11-25T08:23:34.320Z,10.21
2018-11-25T08:26:01.766Z,10.02
2018-11-25T08:28:29.253Z,10.17
2018-11-25T08:30:56.577Z,10.89
2018-11-25T08:33:23.978Z,10.42
2018-11-25T08:35:51.278Z,10.30
2018-11-25T08:38:18.777Z,10.38
2018-11-25T08:40:46.098Z,10.24
2018-11-25T08:43:14.059Z,10.27
2018-11-25T08:45:41.475Z,10.60
2018-11-25T08:48:08.892Z,11.13
2018-11-25T08:50:36.303Z,11.08
2018-11-25T08:53:03.608Z,11.28
2018-11-25T08:55:31.115Z,11.44
2018-11-25T08:57:58.555Z,11.57
2018-11-25T09:00:27.174Z,11.26
2018-11-25T09:02:54.913Z,10.65
2018-11-25T09:05:22.322Z,10.87
2018-11-25T09:07:49.694Z,11.01
2018-11-25T09:10:19.041Z,11.28
2018-11-25T09:12:55.229Z,11.34
2018-11-25T09:15:18.459Z,11.39
2018-11-25T09:17:46.417Z,11.38
2018-11-25T09:20:15.712Z,10.82
2018-11-25T09:22:43.188Z,10.76
2018-11-25T09:25:13.828Z,10.51
2018-11-25T09:27:41.412Z,11.18
2018-11-25T09:30:19.138Z,11.07
2018-11-25T09:32:48.534Z,11.35
2018-11-25T09:35:16.922Z,11.52
2018-11-25T09:37:44.500Z,11.25
2018-11-25T09:40:14.764Z,11.63
2018-11-25T09:42:42.252Z,11.35
2018-11-25T09:45:11.824Z,11.61
2018-11-25T09:47:39.309Z,11.05
2018-11-25T09:50:08.931Z,11.08
2018-11-25T09:52:36.554Z,10.93
2018-11-25T09:55:04.621Z,10.79
2018-11-25T09:57:32.023Z,11.14
2018-11-25T09:59:59.434Z,10.94
2018-11-25T10:02:26.827Z,11.21
2018-11-25T10:04:54.191Z,10.83
2018-11-25T10:07:21.583Z,11.65
2018-11-25T10:09:48.984Z,11.38
2018-11-25T10:12:16.354Z,11.34
2018-11-25T10:14:43.744Z,11.41
2018-11-25T10:17:11.101Z,10.70
2018-11-25T10:19:38.435Z,11.00
2018-11-25T10:22:05.959Z,10.77
2018-11-25T10:24:33.408Z,10.85
2018-11-25T10:27:00.803Z,10.93
2018-11-25T10:29:28.166Z,11.04
2018-11-25T10:31:56.146Z,11.48
2018-11-25T10:34:23.565Z,11.03
2018-11-25T10:36:50.983Z,10.92
2018-11-25T10:39:18.322Z,11.07
2018-11-25T10:41:45.722Z,11.17
2018-11-25T10:44:13.116Z,11.27
2018-11-25T10:46:40.512Z,11.19
2018-11-25T10:49:07.967Z,11.18
2018-11-25T10:51:35.464Z,11.43
2018-11-25T10:54:02.867Z,11.60
2018-11-25T10:56:30.194Z,11.49
2018-11-25T10:58:57.729Z,11.66
2018-11-25T11:01:30.795Z,11.41
2018-11-25T11:03:58.208Z,11.64
2018-11-25T11:06:31.809Z,11.43
2018-11-25T11:08:59.219Z,11.45
2018-11-25T11:11:27.366Z,11.47
2018-11-25T11:13:54.728Z,11.54
2018-11-25T11:16:22.136Z,11.09
2018-11-25T11:18:49.526Z,11.10
2018-11-25T11:21:16.869Z,10.91
2018-11-25T11:23:48.847Z,11.48
2018-11-25T11:26:22.268Z,11.65
2018-11-25T11:28:49.759Z,11.55
2018-11-25T11:31:17.201Z,11.88
2018-11-25T11:33:44.711Z,11.86
2018-11-25T11:36:12.121Z,11.41
2018-11-25T11:38:39.985Z,11.12
2018-11-25T11:41:07.283Z,10.66
2018-11-25T11:43:34.657Z,11.25
2018-11-25T11:46:02.069Z,11.39
2018-11-25T11:48:31.073Z,11.91
2018-11-25T11:50:58.414Z,11.01
2018-11-25T11:53:25.857Z,10.90
2018-11-25T11:55:53.269Z,10.71
2018-11-25T11:58:20.656Z,10.99
2018-11-25T12:00:49.026Z,11.84
2018-11-25T12:03:16.523Z,11.65
2018-11-25T12:05:43.938Z,11.48
2018-11-25T12:08:11.303Z,11.49
2018-11-25T12:10:38.737Z,11.33
2018-11-25T12:13:06.314Z,10.91
2018-11-25T12:15:33.804Z,11.27
2018-11-25T12:18:03.705Z,11.23
2018-11-25T12:20:31.578Z,11.52
2018-11-25T12:22:59.646Z,11.16
2018-11-25T12:25:27.040Z,10.80
2018-11-25T12:27:54.504Z,10.62
2018-11-25T12:30:21.928Z,10.54
2018-11-25T12:32:50.469Z,10.81
2018-11-25T12:35:18.298Z,10.68
2018-11-25T12:37:45.690Z,10.81
2018-11-25T12:40:19.201Z,10.76
2018-11-25T12:42:48.479Z,10.59
2018-11-25T12:45:16.887Z,10.76
2018-11-25T12:47:44.327Z,11.28
2018-11-25T12:50:15.979Z,11.57
2018-11-25T12:52:43.390Z,11.42
2018-11-25T12:55:16.137Z,11.12
2018-11-25T12:57:43.690Z,11.04
2018-11-25T13:00:29.656Z,10.81
2018-11-25T13:02:57.393Z,10.38
2018-11-25T13:05:24.732Z,10.42
2018-11-25T13:07:52.540Z,10.73
2018-11-25T13:10:19.986Z,11.42
2018-11-25T13:12:47.467Z,11.19
2018-11-25T13:15:18.004Z,10.90
2018-11-25T13:17:45.483Z,11.42
2018-11-25T13:20:14.126Z,11.36
2018-11-25T13:22:41.475Z,12.02
2018-11-25T13:25:10.437Z,11.26
2018-11-25T13:27:37.765Z,11.13
2018-11-25T13:30:17.102Z,11.66
2018-11-25T13:32:44.757Z,11.85
2018-11-25T13:35:12.152Z,11.67
2018-11-25T13:37:39.463Z,11.75
2018-11-25T13:40:09.466Z,11.63
2018-11-25T13:42:36.907Z,11.11
2018-11-25T13:45:03.193Z,10.69
2018-11-25T13:47:30.627Z,11.54
2018-11-25T13:49:57.953Z,11.18
2018-11-25T13:52:25.532Z,11.46
2018-11-25T13:54:53.030Z,11.91
2018-11-25T13:57:20.445Z,12.19
2018-11-25T13:59:47.762Z,11.65
2018-11-25T14:02:15.106Z,12.09
2018-11-25T14:04:42.481Z,11.83
2018-11-25T14:07:09.896Z,11.55
2018-11-25T14:09:37.267Z,11.10
2018-11-25T14:12:04.836Z,10.65
2018-11-25T14:14:32.297Z,11.80
2018-11-25T14:16:59.702Z,11.34
2018-11-25T14:19:27.120Z,11.08
2018-11-25T14:21:54.500Z,11.38
2018-11-25T14:24:22.009Z,11.18
2018-11-25T14:26:52.918Z,10.98
2018-11-25T14:29:20.383Z,11.16
2018-11-25T14:31:48.324Z,11.64
2018-11-25T14:34:15.823Z,11.37
2018-11-25T14:36:43.209Z,11.18
2018-11-25T14:39:11.783Z,10.85
2018-11-25T14:41:39.446Z,11.42
2018-11-25T14:44:09.239Z,11.75
2018-11-25T14:46:36.125Z,11.40
2018-11-25T14:49:04.625Z,11.80
2018-11-25T14:51:32.092Z,11.77
2018-11-25T14:53:59.558Z,12.09
2018-11-25T14:56:27.163Z,12.35
2018-11-25T14:58:54.509Z,12.32
2018-11-25T15:01:21.872Z,11.92
2018-11-25T15:03:54.972Z,11.69
2018-11-25T15:06:29.286Z,11.35
2018-11-25T15:08:52.536Z,11.38
2018-11-25T15:11:19.889Z,11.60
2018-11-25T15:13:47.263Z,11.56
2018-11-25T15:16:15.107Z,11.59
2018-11-25T15:18:42.633Z,11.93
2018-11-25T15:21:11.500Z,11.81
2018-11-25T15:23:38.889Z,11.86
2018-11-25T15:26:07.744Z,11.86
2018-11-25T15:28:35.926Z,11.87
2018-11-25T15:31:03.319Z,11.80
2018-11-25T15:33:30.652Z,11.63
2018-11-25T15:35:58.017Z,11.98
2018-11-25T15:38:25.403Z,11.58
2018-11-25T15:40:52.840Z,12.10
2018-11-25T15:43:20.280Z,12.10
2018-11-25T15:45:47.782Z,12.03
2018-11-25T15:48:21.165Z,12.18
2018-11-25T15:50:48.812Z,12.24
2018-11-25T15:53:16.233Z,12.30
2018-11-25T15:55:44.944Z,12.24
2018-11-25T15:58:12.268Z,12.13
2018-11-25T16:00:39.710Z,11.39
2018-11-25T16:03:08.626Z,11.46
2018-11-25T16:05:36.891Z,11.92
2018-11-25T16:08:04.503Z,11.97
2018-11-25T16:10:31.758Z,12.38
2018-11-25T16:12:59.113Z,12.46
2018-11-25T16:15:27.616Z,12.22
2018-11-25T16:17:55.181Z,12.14
2018-11-25T16:20:24.501Z,12.13
2018-11-25T16:23:00.297Z,12.13
2018-11-25T16:25:36.332Z,12.01
2018-11-25T16:28:09.998Z,11.58
2018-11-25T16:30:37.593Z,11.95
2018-11-25T16:33:04.964Z,12.03
2018-11-25T16:35:32.354Z,11.66
2018-11-25T16:37:59.784Z,11.54
2018-11-25T16:40:27.220Z,11.35
2018-11-25T16:42:54.704Z,11.59
2018-11-25T16:45:22.080Z,11.65
2018-11-25T16:47:49.418Z,11.13
2018-11-25T16:50:25.048Z,11.26
2018-11-25T16:52:45.186Z,11.39
2018-11-25T16:55:13.537Z,11.91
2018-11-25T16:57:41.789Z,11.66
2018-11-25T17:00:14.472Z,11.48
2018-11-25T17:02:41.802Z,11.12
2018-11-25T17:05:12.869Z,10.96
2018-11-25T17:07:40.320Z,11.28
2018-11-25T17:10:09.507Z,11.23
2018-11-25T17:12:36.946Z,11.27
2018-11-25T17:15:09.369Z,11.19
2018-11-25T17:17:36.686Z,11.28
2018-11-25T17:20:04.356Z,10.97
2018-11-25T17:22:31.795Z,10.89
2018-11-25T17:24:59.309Z,11.67
2018-11-25T17:27:26.791Z,11.54
2018-11-25T17:29:54.168Z,11.26
2018-11-25T17:32:21.555Z,11.65
2018-11-25T17:34:49.004Z,11.55
2018-11-25T17:37:16.464Z,11.14
2018-11-25T17:39:43.871Z,10.59
2018-11-25T17:42:11.286Z,10.73
2018-11-25T17:44:38.662Z,10.85
2018-11-25T17:47:06.183Z,11.33
2018-11-25T17:49:33.559Z,11.16
2018-11-25T17:52:01.066Z,11.04
2018-11-25T17:54:28.405Z,11.03
2018-11-25T17:56:55.866Z,11.41
2018-11-25T17:59:23.344Z,10.93
2018-11-25T18:01:50.843Z,11.67
2018-11-25T18:04:18.272Z,11.44
2018-11-25T18:06:46.268Z,11.23
2018-11-25T18:09:13.762Z,11.08
2018-11-25T18:11:41.083Z,11.51
2018-11-25T18:14:09.026Z,11.09
2018-11-25T18:16:36.622Z,11.28
2018-11-25T18:19:20.215Z,11.57
2018-11-25T18:21:49.424Z,11.69
2018-11-25T18:24:18.211Z,11.13
2018-11-25T18:26:45.716Z,11.87
2018-11-25T18:29:13.748Z,11.81
2018-11-25T18:31:41.183Z,12.10
2018-11-25T18:34:09.228Z,11.27
2018-11-25T18:36:37.243Z,11.68
2018-11-25T18:39:08.488Z,11.13
2018-11-25T18:41:36.013Z,11.16
2018-11-25T18:44:03.525Z,10.54
2018-11-25T18:46:31.703Z,11.23
2018-11-25T18:48:59.244Z,10.99
2018-11-25T18:51:26.664Z,11.23
2018-11-25T18:53:54.431Z,11.27
2018-11-25T18:56:22.083Z,11.17
2018-11-25T18:58:49.763Z,11.16
2018-11-25T19:01:34.208Z,11.53
2018-11-25T19:04:01.683Z,11.59
2018-11-25T19:06:29.132Z,11.60
2018-11-25T19:08:56.693Z,12.09
2018-11-25T19:11:24.065Z,12.22
2018-11-25T19:13:51.514Z,12.09
2018-11-25T19:16:18.952Z,12.13
2018-11-25T19:18:46.337Z,12.08
2018-11-25T19:21:13.968Z,11.23
2018-11-25T19:23:41.358Z,11.48
2018-11-25T19:26:08.727Z,11.29
2018-11-25T19:28:36.706Z,11.12
2018-11-25T19:31:04.084Z,11.38
2018-11-25T19:33:31.563Z,11.22
2018-11-25T19:35:59.493Z,11.03
2018-11-25T19:38:27.561Z,11.03
2018-11-25T19:40:54.988Z,11.62
2018-11-25T19:43:22.422Z,12.10
2018-11-25T19:45:50.384Z,12.29
2018-11-25T19:48:17.856Z,11.96
2018-11-25T19:50:45.185Z,12.04
2018-11-25T19:53:12.715Z,11.94
2018-11-25T19:55:41.055Z,12.27
2018-11-25T19:58:08.558Z,12.41
2018-11-25T20:00:36.011Z,12.61
2018-11-25T20:03:03.470Z,12.34
2018-11-25T20:05:30.884Z,12.54
2018-11-25T20:07:58.494Z,12.57
2018-11-25T20:10:26.462Z,11.89
2018-11-25T20:12:55.081Z,11.62
2018-11-25T20:15:22.431Z,11.81
2018-11-25T20:17:54.389Z,11.91
2018-11-25T20:20:21.180Z,11.26
2018-11-25T20:22:48.994Z,11.05
2018-11-25T20:25:17.098Z,11.49
2018-11-25T20:27:46.436Z,11.48
2018-11-25T20:30:18.803Z,11.68
2018-11-25T20:32:51.997Z,11.62
2018-11-25T20:35:19.390Z,11.17
2018-11-25T20:37:52.443Z,11.33
2018-11-25T20:40:19.963Z,11.84
2018-11-25T20:42:47.349Z,11.13
2018-11-25T20:45:21.761Z,11.35
2018-11-25T20:47:49.119Z,11.27
2018-11-25T20:50:16.492Z,11.26
2018-11-25T20:52:49.705Z,11.48
2018-11-25T20:55:17.519Z,11.88
2018-11-25T20:57:45.038Z,11.76
2018-11-25T21:00:15.155Z,12.09
2018-11-25T21:02:42.219Z,11.79
2018-11-25T21:05:11.867Z,12.38
2018-11-25T21:07:39.892Z,11.94
2018-11-25T21:10:10.686Z,11.74
2018-11-25T21:12:38.441Z,12.09
2018-11-25T21:15:07.614Z,11.72
2018-11-25T21:17:35.054Z,11.74
2018-11-25T21:20:03.224Z,11.70
2018-11-25T21:22:30.756Z,11.56
2018-11-25T21:24:58.097Z,11.94
2018-11-25T21:27:25.449Z,12.38
2018-11-25T21:29:52.877Z,12.23
2018-11-25T21:32:20.410Z,12.30
2018-11-25T21:34:47.960Z,12.47
2018-11-25T21:37:15.418Z,12.50
2018-11-25T21:39:42.925Z,12.05
2018-11-25T21:42:10.402Z,11.28
2018-11-25T21:44:37.768Z,10.93
2018-11-25T21:47:06.006Z,11.27
2018-11-25T21:49:33.426Z,11.48
2018-11-25T21:52:00.850Z,11.59
2018-11-25T21:54:28.174Z,11.30
2018-11-25T21:56:55.691Z,11.98
2018-11-25T21:59:23.030Z,11.69
2018-11-25T22:01:50.380Z,11.59
2018-11-25T22:04:17.870Z,11.51
2018-11-25T22:06:45.300Z,11.38
2018-11-25T22:09:12.766Z,11.72
2018-11-25T22:11:40.263Z,11.10
2018-11-25T22:14:07.691Z,11.36
2018-11-25T22:16:35.677Z,11.95
2018-11-25T22:19:06.997Z,11.48
2018-11-25T22:21:34.615Z,11.66
2018-11-25T22:24:02.002Z,11.89
2018-11-25T22:26:29.321Z,11.91
2018-11-25T22:28:56.683Z,11.98
2018-11-25T22:31:24.031Z,12.24
2018-11-25T22:33:51.470Z,12.09
2018-11-25T22:36:18.912Z,11.85
2018-11-25T22:38:46.399Z,11.56
2018-11-25T22:41:13.786Z,11.94
2018-11-25T22:43:41.280Z,12.03
2018-11-25T22:46:08.602Z,11.57
2018-11-25T22:48:35.999Z,11.49
2018-11-25T22:51:03.355Z,11.71
2018-11-25T22:53:30.755Z,11.69
2018-11-25T22:55:58.179Z,11.13
2018-11-25T22:58:25.569Z,11.72
2018-11-25T23:00:53.406Z,11.42
2018-11-25T23:03:21.050Z,11.35
2018-11-25T23:06:02.701Z,11.04
2018-11-25T23:08:30.134Z,11.56
2018-11-25T23:10:57.546Z,12.17
2018-11-25T23:13:24.849Z,11.51
2018-11-25T23:15:52.220Z,11.29
2018-11-25T23:18:20.148Z,11.88
2018-11-25T23:20:47.485Z,11.61
2018-11-25T23:23:14.906Z,11.58
2018-11-25T23:25:42.335Z,10.92
2018-11-25T23:28:09.826Z,11.30
2018-11-25T23:30:37.212Z,11.59
2018-11-25T23:33:04.831Z,11.46
2018-11-25T23:35:33.313Z,11.55
2018-11-25T23:38:00.649Z,11.41
2018-11-25T23:40:28.027Z,10.88
2018-11-25T23:42:55.339Z,11.18
2018-11-25T23:45:22.801Z,11.23
2018-11-25T23:47:50.107Z,11.44
2018-11-25T23:50:17.427Z,11.40
2018-11-25T23:52:47.059Z,10.60
2018-11-25T23:55:14.909Z,11.52
2018-11-25T23:57:42.833Z,11.26
